sensor_id;sensor_type;location;lat;lon;timestamp;temperature;humidity
45489;DHT22;31236;55.026;61.042;2022-09-02T00:02:06;18.70;73.70
45489;DHT22;31236;55.026;61.042;2022-09-02T00:04:07;18.70;73.80
45489;DHT22;31236;55.026;61.042;2022-09-02T00:06:36;18.60;73.70
45489;DHT22;31236;55.026;61.042;2022-09-02T00:09:06;18.60;73.70
45489;DHT22;31236;55.026;61.042;2022-09-02T00:11:35;18.60;73.90
45489;DHT22;31236;55.026;61.042;2022-09-02T00:14:06;18.50;74.00
45489;DHT22;31236;55.026;61.042;2022-09-02T00:16:36;18.50;73.80
45489;DHT22;31236;55.026;61.042;2022-09-02T00:19:07;18.50;73.80
45489;DHT22;31236;55.026;61.042;2022-09-02T00:21:36;18.40;73.70
45489;DHT22;31236;55.026;61.042;2022-09-02T00:24:06;18.40;74.00
45489;DHT22;31236;55.026;61.042;2022-09-02T00:26:35;18.30;73.90
45489;DHT22;31236;55.026;61.042;2022-09-02T00:29:05;18.40;74.00
45489;DHT22;31236;55.026;61.042;2022-09-02T00:31:34;18.30;74.00
45489;DHT22;31236;55.026;61.042;2022-09-02T00:34:04;18.20;74.00
45489;DHT22;31236;55.026;61.042;2022-09-02T00:36:33;18.30;74.10
45489;DHT22;31236;55.026;61.042;2022-09-02T00:39:03;18.20;74.00
45489;DHT22;31236;55.026;61.042;2022-09-02T00:41:33;18.20;74.50
45489;DHT22;31236;55.026;61.042;2022-09-02T00:44:05;18.30;74.00
45489;DHT22;31236;55.026;61.042;2022-09-02T00:46:34;18.30;74.20
45489;DHT22;31236;55.026;61.042;2022-09-02T00:57:31;18.40;71.90
45489;DHT22;31236;55.026;61.042;2022-09-02T01:02:51;18.40;72.00
45489;DHT22;31236;55.026;61.042;2022-09-02T01:05:20;18.40;72.10
45489;DHT22;31236;55.026;61.042;2022-09-02T01:07:50;18.30;72.30
45489;DHT22;31236;55.026;61.042;2022-09-02T01:10:21;18.30;72.60
45489;DHT22;31236;55.026;61.042;2022-09-02T01:15:40;18.20;72.90
45489;DHT22;31236;55.026;61.042;2022-09-02T01:18:11;18.20;72.90
45489;DHT22;31236;55.026;61.042;2022-09-02T01:20:40;18.20;72.80
45489;DHT22;31236;55.026;61.042;2022-09-02T01:23:10;18.20;73.20
45489;DHT22;31236;55.026;61.042;2022-09-02T01:25:40;18.10;73.30
45489;DHT22;31236;55.026;61.042;2022-09-02T01:28:11;18.00;73.40
45489;DHT22;31236;55.026;61.042;2022-09-02T01:30:41;18.00;73.40
45489;DHT22;31236;55.026;61.042;2022-09-02T01:33:10;18.00;73.50
45489;DHT22;31236;55.026;61.042;2022-09-02T01:35:40;18.00;73.60
45489;DHT22;31236;55.026;61.042;2022-09-02T01:38:09;17.90;73.60
45489;DHT22;31236;55.026;61.042;2022-09-02T01:40:38;17.90;74.10
45489;DHT22;31236;55.026;61.042;2022-09-02T01:43:39;17.80;74.30
45489;DHT22;31236;55.026;61.042;2022-09-02T01:45:40;17.80;74.30
45489;DHT22;31236;55.026;61.042;2022-09-02T01:48:09;17.80;74.50
45489;DHT22;31236;55.026;61.042;2022-09-02T01:50:40;17.70;74.50
45489;DHT22;31236;55.026;61.042;2022-09-02T01:53:09;17.80;74.40
45489;DHT22;31236;55.026;61.042;2022-09-02T01:55:39;17.70;74.40
45489;DHT22;31236;55.026;61.042;2022-09-02T01:58:08;17.70;74.40
45489;DHT22;31236;55.026;61.042;2022-09-02T02:00:37;17.70;74.50
45489;DHT22;31236;55.026;61.042;2022-09-02T02:03:07;17.80;74.60
45489;DHT22;31236;55.026;61.042;2022-09-02T02:05:36;17.80;74.60
45489;DHT22;31236;55.026;61.042;2022-09-02T02:08:06;17.80;74.90
45489;DHT22;31236;55.026;61.042;2022-09-02T02:10:35;17.80;75.20
45489;DHT22;31236;55.026;61.042;2022-09-02T02:13:05;17.80;75.00
45489;DHT22;31236;55.026;61.042;2022-09-02T02:15:35;17.90;74.90
45489;DHT22;31236;55.026;61.042;2022-09-02T02:18:05;17.90;74.90
45489;DHT22;31236;55.026;61.042;2022-09-02T02:20:34;17.90;74.90
45489;DHT22;31236;55.026;61.042;2022-09-02T02:23:04;18.00;74.80
45489;DHT22;31236;55.026;61.042;2022-09-02T02:25:33;18.00;74.90
45489;DHT22;31236;55.026;61.042;2022-09-02T02:28:02;18.00;75.00
45489;DHT22;31236;55.026;61.042;2022-09-02T02:30:32;18.00;75.10
45489;DHT22;31236;55.026;61.042;2022-09-02T02:33:01;18.00;75.10
45489;DHT22;31236;55.026;61.042;2022-09-02T02:35:30;18.00;75.10
45489;DHT22;31236;55.026;61.042;2022-09-02T02:37:59;18.00;75.20
45489;DHT22;31236;55.026;61.042;2022-09-02T02:40:29;18.00;75.20
45489;DHT22;31236;55.026;61.042;2022-09-02T02:42:58;18.00;75.10
45489;DHT22;31236;55.026;61.042;2022-09-02T02:45:28;18.10;75.10
45489;DHT22;31236;55.026;61.042;2022-09-02T02:47:58;18.10;75.10
45489;DHT22;31236;55.026;61.042;2022-09-02T02:50:28;18.10;74.80
45489;DHT22;31236;55.026;61.042;2022-09-02T02:52:57;18.20;74.70
45489;DHT22;31236;55.026;61.042;2022-09-02T02:55:28;18.20;74.70
45489;DHT22;31236;55.026;61.042;2022-09-02T02:57:57;18.20;74.70
45489;DHT22;31236;55.026;61.042;2022-09-02T03:00:28;18.20;74.90
45489;DHT22;31236;55.026;61.042;2022-09-02T03:05:48;18.40;74.60
45489;DHT22;31236;55.026;61.042;2022-09-02T03:08:17;18.40;74.40
45489;DHT22;31236;55.026;61.042;2022-09-02T03:10:48;18.50;74.30
45489;DHT22;31236;55.026;61.042;2022-09-02T03:13:19;18.50;74.20
45489;DHT22;31236;55.026;61.042;2022-09-02T03:15:49;18.60;74.10
45489;DHT22;31236;55.026;61.042;2022-09-02T03:18:18;18.60;74.10
45489;DHT22;31236;55.026;61.042;2022-09-02T03:20:47;18.60;74.00
45489;DHT22;31236;55.026;61.042;2022-09-02T03:23:17;18.70;73.90
45489;DHT22;31236;55.026;61.042;2022-09-02T03:25:46;18.80;73.90
45489;DHT22;31236;55.026;61.042;2022-09-02T03:28:16;18.80;73.80
45489;DHT22;31236;55.026;61.042;2022-09-02T03:30:45;18.90;73.80
45489;DHT22;31236;55.026;61.042;2022-09-02T03:33:15;18.90;73.70
45489;DHT22;31236;55.026;61.042;2022-09-02T03:35:44;18.90;73.70
45489;DHT22;31236;55.026;61.042;2022-09-02T03:38:14;18.90;73.70
45489;DHT22;31236;55.026;61.042;2022-09-02T03:40:43;18.90;73.70
45489;DHT22;31236;55.026;61.042;2022-09-02T03:43:12;18.90;73.70
45489;DHT22;31236;55.026;61.042;2022-09-02T03:45:42;18.90;73.80
45489;DHT22;31236;55.026;61.042;2022-09-02T03:48:11;19.00;73.60
45489;DHT22;31236;55.026;61.042;2022-09-02T03:50:42;19.10;73.50
45489;DHT22;31236;55.026;61.042;2022-09-02T03:53:12;19.20;73.30
45489;DHT22;31236;55.026;61.042;2022-09-02T03:55:41;19.30;73.00
45489;DHT22;31236;55.026;61.042;2022-09-02T03:58:11;19.40;72.90
45489;DHT22;31236;55.026;61.042;2022-09-02T04:00:40;19.50;72.70
45489;DHT22;31236;55.026;61.042;2022-09-02T04:03:09;19.60;72.50
45489;DHT22;31236;55.026;61.042;2022-09-02T04:05:38;19.80;72.30
45489;DHT22;31236;55.026;61.042;2022-09-02T04:08:08;19.90;72.20
45489;DHT22;31236;55.026;61.042;2022-09-02T04:10:37;20.00;72.10
45489;DHT22;31236;55.026;61.042;2022-09-02T04:13:06;20.00;72.00
45489;DHT22;31236;55.026;61.042;2022-09-02T04:16:07;20.10;71.90
45489;DHT22;31236;55.026;61.042;2022-09-02T04:18:25;20.20;71.80
45489;DHT22;31236;55.026;61.042;2022-09-02T04:20:57;20.40;71.40
45489;DHT22;31236;55.026;61.042;2022-09-02T04:23:25;20.50;71.30
45489;DHT22;31236;55.026;61.042;2022-09-02T04:25:55;20.60;71.20
45489;DHT22;31236;55.026;61.042;2022-09-02T04:28:24;20.80;71.00
45489;DHT22;31236;55.026;61.042;2022-09-02T04:30:53;21.00;70.80
45489;DHT22;31236;55.026;61.042;2022-09-02T04:33:23;21.20;70.70
45489;DHT22;31236;55.026;61.042;2022-09-02T04:35:52;21.30;70.50
45489;DHT22;31236;55.026;61.042;2022-09-02T04:38:22;21.40;70.50
45489;DHT22;31236;55.026;61.042;2022-09-02T04:40:51;21.40;70.40
45489;DHT22;31236;55.026;61.042;2022-09-02T04:43:20;21.40;70.60
45489;DHT22;31236;55.026;61.042;2022-09-02T04:45:50;21.50;70.60
45489;DHT22;31236;55.026;61.042;2022-09-02T04:48:21;21.60;70.50
45489;DHT22;31236;55.026;61.042;2022-09-02T04:50:50;21.70;70.30
45489;DHT22;31236;55.026;61.042;2022-09-02T04:53:19;21.90;70.10
45489;DHT22;31236;55.026;61.042;2022-09-02T04:55:49;22.10;69.80
45489;DHT22;31236;55.026;61.042;2022-09-02T04:58:18;22.30;69.30
45489;DHT22;31236;55.026;61.042;2022-09-02T05:00:47;22.40;68.90
45489;DHT22;31236;55.026;61.042;2022-09-02T05:03:16;22.60;68.50
45489;DHT22;31236;55.026;61.042;2022-09-02T05:05:46;22.70;68.10
45489;DHT22;31236;55.026;61.042;2022-09-02T05:08:15;22.90;67.90
45489;DHT22;31236;55.026;61.042;2022-09-02T05:10:46;23.10;67.40
45489;DHT22;31236;55.026;61.042;2022-09-02T05:13:15;23.30;67.10
45489;DHT22;31236;55.026;61.042;2022-09-02T05:15:45;23.40;66.80
45489;DHT22;31236;55.026;61.042;2022-09-02T05:18:14;23.60;66.40
45489;DHT22;31236;55.026;61.042;2022-09-02T05:20:44;23.70;66.20
45489;DHT22;31236;55.026;61.042;2022-09-02T05:23:13;23.80;65.60
45489;DHT22;31236;55.026;61.042;2022-09-02T05:25:42;23.90;65.40
45489;DHT22;31236;55.026;61.042;2022-09-02T05:28:12;24.10;65.00
45489;DHT22;31236;55.026;61.042;2022-09-02T05:30:42;24.20;64.70
45489;DHT22;31236;55.026;61.042;2022-09-02T05:33:11;24.40;64.50
45489;DHT22;31236;55.026;61.042;2022-09-02T05:35:40;24.60;64.00
45489;DHT22;31236;55.026;61.042;2022-09-02T05:38:10;24.70;63.60
45489;DHT22;31236;55.026;61.042;2022-09-02T05:40:40;24.80;62.50
45489;DHT22;31236;55.026;61.042;2022-09-02T05:43:09;24.90;62.50
45489;DHT22;31236;55.026;61.042;2022-09-02T05:45:38;25.00;62.20
45489;DHT22;31236;55.026;61.042;2022-09-02T05:48:08;25.00;62.00
45489;DHT22;31236;55.026;61.042;2022-09-02T05:50:56;25.10;60.90
45489;DHT22;31236;55.026;61.042;2022-09-02T05:53:25;25.40;60.30
45489;DHT22;31236;55.026;61.042;2022-09-02T05:55:54;25.40;59.40
45489;DHT22;31236;55.026;61.042;2022-09-02T05:58:24;25.40;58.70
45489;DHT22;31236;55.026;61.042;2022-09-02T06:00:53;25.40;59.00
45489;DHT22;31236;55.026;61.042;2022-09-02T06:03:23;25.60;59.00
45489;DHT22;31236;55.026;61.042;2022-09-02T06:08:41;25.80;58.00
45489;DHT22;31236;55.026;61.042;2022-09-02T06:11:11;26.00;57.10
45489;DHT22;31236;55.026;61.042;2022-09-02T06:13:40;26.20;56.80
45489;DHT22;31236;55.026;61.042;2022-09-02T06:16:12;26.40;56.00
45489;DHT22;31236;55.026;61.042;2022-09-02T06:18:40;26.50;54.90
45489;DHT22;31236;55.026;61.042;2022-09-02T06:21:10;26.60;53.80
45489;DHT22;31236;55.026;61.042;2022-09-02T06:23:39;26.70;52.40
45489;DHT22;31236;55.026;61.042;2022-09-02T06:26:09;26.80;52.20
45489;DHT22;31236;55.026;61.042;2022-09-02T06:28:39;27.00;52.50
45489;DHT22;31236;55.026;61.042;2022-09-02T06:31:08;27.10;52.20
45489;DHT22;31236;55.026;61.042;2022-09-02T06:36:27;27.30;49.80
45489;DHT22;31236;55.026;61.042;2022-09-02T06:38:57;27.30;49.90
45489;DHT22;31236;55.026;61.042;2022-09-02T06:41:28;27.40;48.20
45489;DHT22;31236;55.026;61.042;2022-09-02T06:43:59;27.50;48.00
45489;DHT22;31236;55.026;61.042;2022-09-02T06:47:03;27.60;47.20
45489;DHT22;31236;55.026;61.042;2022-09-02T06:49:00;27.70;46.50
45489;DHT22;31236;55.026;61.042;2022-09-02T06:51:30;27.70;46.40
45489;DHT22;31236;55.026;61.042;2022-09-02T06:54:00;27.90;47.10
45489;DHT22;31236;55.026;61.042;2022-09-02T06:56:30;27.90;47.30
45489;DHT22;31236;55.026;61.042;2022-09-02T06:58:59;28.00;46.60
45489;DHT22;31236;55.026;61.042;2022-09-02T07:01:28;28.10;45.90
45489;DHT22;31236;55.026;61.042;2022-09-02T07:03:58;28.20;45.40
45489;DHT22;31236;55.026;61.042;2022-09-02T07:06:48;28.20;44.00
45489;DHT22;31236;55.026;61.042;2022-09-02T07:09:19;28.40;44.30
45489;DHT22;31236;55.026;61.042;2022-09-02T07:11:48;28.50;43.60
45489;DHT22;31236;55.026;61.042;2022-09-02T07:14:18;28.60;43.80
45489;DHT22;31236;55.026;61.042;2022-09-02T07:16:48;28.70;43.50
45489;DHT22;31236;55.026;61.042;2022-09-02T07:19:19;28.70;42.00
45489;DHT22;31236;55.026;61.042;2022-09-02T07:21:48;28.90;41.90
45489;DHT22;31236;55.026;61.042;2022-09-02T07:24:18;29.00;41.20
45489;DHT22;31236;55.026;61.042;2022-09-02T07:26:47;29.10;41.40
45489;DHT22;31236;55.026;61.042;2022-09-02T07:29:17;29.20;40.70
45489;DHT22;31236;55.026;61.042;2022-09-02T07:31:46;29.20;41.10
45489;DHT22;31236;55.026;61.042;2022-09-02T07:34:16;29.30;40.90
45489;DHT22;31236;55.026;61.042;2022-09-02T07:36:46;29.30;41.00
45489;DHT22;31236;55.026;61.042;2022-09-02T07:39:16;29.20;41.00
45489;DHT22;31236;55.026;61.042;2022-09-02T07:41:46;29.10;41.20
45489;DHT22;31236;55.026;61.042;2022-09-02T07:44:16;29.00;40.20
45489;DHT22;31236;55.026;61.042;2022-09-02T07:46:45;28.90;40.10
45489;DHT22;31236;55.026;61.042;2022-09-02T07:49:15;28.90;39.60
45489;DHT22;31236;55.026;61.042;2022-09-02T07:51:46;28.90;40.00
45489;DHT22;31236;55.026;61.042;2022-09-02T07:54:17;28.90;40.10
45489;DHT22;31236;55.026;61.042;2022-09-02T07:56:46;29.00;39.60
45489;DHT22;31236;55.026;61.042;2022-09-02T07:59:15;29.10;39.90
45489;DHT22;31236;55.026;61.042;2022-09-02T08:01:45;29.20;39.90
45489;DHT22;31236;55.026;61.042;2022-09-02T08:04:15;29.30;39.60
45489;DHT22;31236;55.026;61.042;2022-09-02T08:06:44;29.50;39.20
45489;DHT22;31236;55.026;61.042;2022-09-02T08:09:14;29.60;38.80
45489;DHT22;31236;55.026;61.042;2022-09-02T08:11:44;29.70;38.30
45489;DHT22;31236;55.026;61.042;2022-09-02T08:14:16;29.80;38.40
45489;DHT22;31236;55.026;61.042;2022-09-02T08:16:46;29.90;38.30
45489;DHT22;31236;55.026;61.042;2022-09-02T08:19:15;29.90;36.80
45489;DHT22;31236;55.026;61.042;2022-09-02T08:21:44;30.00;36.60
45489;DHT22;31236;55.026;61.042;2022-09-02T08:24:14;30.20;36.40
45489;DHT22;31236;55.026;61.042;2022-09-02T08:26:43;30.30;34.00
45489;DHT22;31236;55.026;61.042;2022-09-02T08:29:13;30.40;34.70
45489;DHT22;31236;55.026;61.042;2022-09-02T08:31:42;30.50;35.40
45489;DHT22;31236;55.026;61.042;2022-09-02T08:34:11;30.50;35.70
45489;DHT22;31236;55.026;61.042;2022-09-02T08:36:41;30.60;35.90
45489;DHT22;31236;55.026;61.042;2022-09-02T08:39:11;30.70;35.70
45489;DHT22;31236;55.026;61.042;2022-09-02T08:44:29;30.80;34.30
45489;DHT22;31236;55.026;61.042;2022-09-02T08:47:00;30.80;33.80
45489;DHT22;31236;55.026;61.042;2022-09-02T08:49:30;30.80;31.30
45489;DHT22;31236;55.026;61.042;2022-09-02T08:52:00;30.90;31.50
45489;DHT22;31236;55.026;61.042;2022-09-02T08:54:30;31.00;30.50
45489;DHT22;31236;55.026;61.042;2022-09-02T08:57:00;31.10;30.80
45489;DHT22;31236;55.026;61.042;2022-09-02T08:59:29;31.10;31.50
45489;DHT22;31236;55.026;61.042;2022-09-02T09:07:42;30.70;31.20
45489;DHT22;31236;55.026;61.042;2022-09-02T09:18:16;30.30;31.40
45489;DHT22;31236;55.026;61.042;2022-09-02T09:20:45;30.20;32.10
45489;DHT22;31236;55.026;61.042;2022-09-02T09:28:52;30.10;32.00
45489;DHT22;31236;55.026;61.042;2022-09-02T09:31:25;30.20;30.50
45489;DHT22;31236;55.026;61.042;2022-09-02T09:36:44;30.60;31.50
45489;DHT22;31236;55.026;61.042;2022-09-02T09:42:08;30.80;31.60
45489;DHT22;31236;55.026;61.042;2022-09-02T09:47:04;30.80;30.60
45489;DHT22;31236;55.026;61.042;2022-09-02T09:49:35;30.90;29.50
45489;DHT22;31236;55.026;61.042;2022-09-02T09:52:05;31.00;30.00
45489;DHT22;31236;55.026;61.042;2022-09-02T09:54:34;31.20;31.30
45489;DHT22;31236;55.026;61.042;2022-09-02T09:59:52;31.30;30.80
45489;DHT22;31236;55.026;61.042;2022-09-02T10:02:23;31.30;30.30
45489;DHT22;31236;55.026;61.042;2022-09-02T10:04:53;31.20;30.80
45489;DHT22;31236;55.026;61.042;2022-09-02T10:13:15;30.80;29.90
45489;DHT22;31236;55.026;61.042;2022-09-02T10:26:46;30.60;29.70
45489;DHT22;31236;55.026;61.042;2022-09-02T10:37:25;30.50;30.00
45489;DHT22;31236;55.026;61.042;2022-09-02T11:10:55;30.60;29.10
45489;DHT22;31236;55.026;61.042;2022-09-02T11:22:23;30.70;29.40
45489;DHT22;31236;55.026;61.042;2022-09-02T11:35:36;30.80;28.20
45489;DHT22;31236;55.026;61.042;2022-09-02T12:00:35;30.30;28.40
45489;DHT22;31236;55.026;61.042;2022-09-02T12:14:05;30.10;29.20
45489;DHT22;31236;55.026;61.042;2022-09-02T12:19:27;29.90;29.80
45489;DHT22;31236;55.026;61.042;2022-09-02T12:30:06;29.70;29.80
45489;DHT22;31236;55.026;61.042;2022-09-02T12:52:01;29.40;31.00
45489;DHT22;31236;55.026;61.042;2022-09-02T12:54:34;29.40;31.20
45489;DHT22;31236;55.026;61.042;2022-09-02T12:57:01;29.40;31.40
45489;DHT22;31236;55.026;61.042;2022-09-02T13:00:04;29.40;31.50
45489;DHT22;31236;55.026;61.042;2022-09-02T13:37:58;28.70;35.00
45489;DHT22;31236;55.026;61.042;2022-09-02T13:43:17;28.40;35.40
45489;DHT22;31236;55.026;61.042;2022-09-02T13:45:47;28.30;35.50
45489;DHT22;31236;55.026;61.042;2022-09-02T13:48:18;28.20;35.80
45489;DHT22;31236;55.026;61.042;2022-09-02T13:50:48;28.10;36.00
45489;DHT22;31236;55.026;61.042;2022-09-02T13:56:07;28.00;36.30
45489;DHT22;31236;55.026;61.042;2022-09-02T13:58:38;27.90;36.30
45489;DHT22;31236;55.026;61.042;2022-09-02T14:03:57;27.80;36.90
45489;DHT22;31236;55.026;61.042;2022-09-02T14:07:01;27.70;37.00
45489;DHT22;31236;55.026;61.042;2022-09-02T14:08:59;27.60;37.30
45489;DHT22;31236;55.026;61.042;2022-09-02T14:11:31;27.60;37.40
45489;DHT22;31236;55.026;61.042;2022-09-02T14:13:59;27.50;37.50
45489;DHT22;31236;55.026;61.042;2022-09-02T14:16:29;27.50;37.60
45489;DHT22;31236;55.026;61.042;2022-09-02T14:27:13;27.30;38.50
45489;DHT22;31236;55.026;61.042;2022-09-02T14:29:41;27.20;38.70
45489;DHT22;31236;55.026;61.042;2022-09-02T14:32:10;27.20;38.90
45489;DHT22;31236;55.026;61.042;2022-09-02T14:34:39;27.20;39.00
45489;DHT22;31236;55.026;61.042;2022-09-02T14:42:29;27.10;39.60
45489;DHT22;31236;55.026;61.042;2022-09-02T14:45:00;27.00;39.50
45489;DHT22;31236;55.026;61.042;2022-09-02T14:47:34;26.90;40.00
45489;DHT22;31236;55.026;61.042;2022-09-02T14:50:02;26.90;40.00
45489;DHT22;31236;55.026;61.042;2022-09-02T14:52:32;26.80;40.40
45489;DHT22;31236;55.026;61.042;2022-09-02T14:55:02;26.80;40.70
45489;DHT22;31236;55.026;61.042;2022-09-02T14:57:56;26.80;41.00
45489;DHT22;31236;55.026;61.042;2022-09-02T15:00:21;26.70;41.00
45489;DHT22;31236;55.026;61.042;2022-09-02T15:02:52;26.60;41.30
45489;DHT22;31236;55.026;61.042;2022-09-02T15:05:20;26.60;41.40
45489;DHT22;31236;55.026;61.042;2022-09-02T15:07:50;26.40;41.60
45489;DHT22;31236;55.026;61.042;2022-09-02T15:10:19;26.40;41.70
45489;DHT22;31236;55.026;61.042;2022-09-02T15:12:48;26.30;41.90
45489;DHT22;31236;55.026;61.042;2022-09-02T15:15:18;26.30;42.50
45489;DHT22;31236;55.026;61.042;2022-09-02T15:17:48;26.20;42.30
45489;DHT22;31236;55.026;61.042;2022-09-02T15:20:17;26.20;42.40
45489;DHT22;31236;55.026;61.042;2022-09-02T15:22:48;26.20;42.70
45489;DHT22;31236;55.026;61.042;2022-09-02T15:25:18;26.20;42.60
45489;DHT22;31236;55.026;61.042;2022-09-02T15:27:47;26.10;42.50
45489;DHT22;31236;55.026;61.042;2022-09-02T15:30:17;26.20;42.60
45489;DHT22;31236;55.026;61.042;2022-09-02T15:32:47;26.10;42.70
45489;DHT22;31236;55.026;61.042;2022-09-02T15:35:16;26.10;42.90
45489;DHT22;31236;55.026;61.042;2022-09-02T15:37:48;26.00;42.80
45489;DHT22;31236;55.026;61.042;2022-09-02T15:40:15;25.90;43.00
45489;DHT22;31236;55.026;61.042;2022-09-02T15:42:45;25.80;43.30
45489;DHT22;31236;55.026;61.042;2022-09-02T15:45:14;25.70;43.40
45489;DHT22;31236;55.026;61.042;2022-09-02T15:47:44;25.60;43.60
45489;DHT22;31236;55.026;61.042;2022-09-02T15:50:13;25.50;44.40
45489;DHT22;31236;55.026;61.042;2022-09-02T15:52:42;25.40;44.40
45489;DHT22;31236;55.026;61.042;2022-09-02T15:55:11;25.30;45.00
45489;DHT22;31236;55.026;61.042;2022-09-02T15:57:41;25.10;45.60
45489;DHT22;31236;55.026;61.042;2022-09-02T16:00:11;25.00;46.20
45489;DHT22;31236;55.026;61.042;2022-09-02T16:02:41;24.80;46.70
45489;DHT22;31236;55.026;61.042;2022-09-02T16:05:11;24.70;47.20
45489;DHT22;31236;55.026;61.042;2022-09-02T16:07:41;24.50;47.70
45489;DHT22;31236;55.026;61.042;2022-09-02T16:10:11;24.40;48.20
45489;DHT22;31236;55.026;61.042;2022-09-02T16:12:40;24.20;48.90
45489;DHT22;31236;55.026;61.042;2022-09-02T16:15:10;24.10;49.30
45489;DHT22;31236;55.026;61.042;2022-09-02T16:17:39;24.00;49.50
45489;DHT22;31236;55.026;61.042;2022-09-02T16:20:08;23.90;49.70
45489;DHT22;31236;55.026;61.042;2022-09-02T16:22:38;23.70;50.00
45489;DHT22;31236;55.026;61.042;2022-09-02T16:25:07;23.60;50.50
45489;DHT22;31236;55.026;61.042;2022-09-02T16:27:36;23.50;51.00
45489;DHT22;31236;55.026;61.042;2022-09-02T16:30:25;23.40;51.20
45489;DHT22;31236;55.026;61.042;2022-09-02T16:32:55;23.40;51.50
45489;DHT22;31236;55.026;61.042;2022-09-02T16:35:24;23.20;52.30
45489;DHT22;31236;55.026;61.042;2022-09-02T16:37:53;23.10;52.80
45489;DHT22;31236;55.026;61.042;2022-09-02T16:40:22;23.00;53.40
45489;DHT22;31236;55.026;61.042;2022-09-02T16:42:52;22.90;53.60
45489;DHT22;31236;55.026;61.042;2022-09-02T16:45:21;22.80;54.20
45489;DHT22;31236;55.026;61.042;2022-09-02T16:47:50;22.70;54.70
45489;DHT22;31236;55.026;61.042;2022-09-02T16:50:19;22.60;55.00
45489;DHT22;31236;55.026;61.042;2022-09-02T16:53:07;22.50;55.20
45489;DHT22;31236;55.026;61.042;2022-09-02T16:58:24;22.40;55.70
45489;DHT22;31236;55.026;61.042;2022-09-02T17:00:54;22.30;56.00
45489;DHT22;31236;55.026;61.042;2022-09-02T17:03:25;22.20;56.10
45489;DHT22;31236;55.026;61.042;2022-09-02T17:05:54;22.20;56.70
45489;DHT22;31236;55.026;61.042;2022-09-02T17:08:24;22.10;57.90
45489;DHT22;31236;55.026;61.042;2022-09-02T17:11:09;22.10;57.30
45489;DHT22;31236;55.026;61.042;2022-09-02T17:13:23;22.10;57.20
45489;DHT22;31236;55.026;61.042;2022-09-02T17:15:52;22.10;57.30
45489;DHT22;31236;55.026;61.042;2022-09-02T17:18:22;22.20;57.20
45489;DHT22;31236;55.026;61.042;2022-09-02T17:20:51;22.30;57.00
45489;DHT22;31236;55.026;61.042;2022-09-02T17:23:21;22.30;56.80
45489;DHT22;31236;55.026;61.042;2022-09-02T17:25:51;22.30;56.80
45489;DHT22;31236;55.026;61.042;2022-09-02T17:28:20;22.30;57.10
45489;DHT22;31236;55.026;61.042;2022-09-02T17:30:51;22.30;57.10
45489;DHT22;31236;55.026;61.042;2022-09-02T17:33:20;22.30;57.00
45489;DHT22;31236;55.026;61.042;2022-09-02T17:38:37;22.30;57.60
45489;DHT22;31236;55.026;61.042;2022-09-02T17:41:06;22.30;57.60
45489;DHT22;31236;55.026;61.042;2022-09-02T17:43:55;22.30;57.50
45489;DHT22;31236;55.026;61.042;2022-09-02T17:46:24;22.40;57.40
45489;DHT22;31236;55.026;61.042;2022-09-02T17:48:53;22.50;57.00
45489;DHT22;31236;55.026;61.042;2022-09-02T17:51:22;22.50;56.70
45489;DHT22;31236;55.026;61.042;2022-09-02T17:53:52;22.60;56.60
45489;DHT22;31236;55.026;61.042;2022-09-02T17:59:44;22.60;56.70
45489;DHT22;31236;55.026;61.042;2022-09-02T18:09:49;22.50;56.70
45489;DHT22;31236;55.026;61.042;2022-09-02T18:12:19;22.50;56.80
45489;DHT22;31236;55.026;61.042;2022-09-02T18:14:50;22.50;56.90
45489;DHT22;31236;55.026;61.042;2022-09-02T18:36:07;21.90;58.70
45489;DHT22;31236;55.026;61.042;2022-09-02T18:47:20;21.50;59.90
45489;DHT22;31236;55.026;61.042;2022-09-02T18:49:51;21.50;60.30
45489;DHT22;31236;55.026;61.042;2022-09-02T18:52:22;21.30;60.50
45489;DHT22;31236;55.026;61.042;2022-09-02T18:58:12;21.20;61.10
45489;DHT22;31236;55.026;61.042;2022-09-02T19:05:29;21.00;61.90
45489;DHT22;31236;55.026;61.042;2022-09-02T19:16:31;20.80;62.80
45489;DHT22;31236;55.026;61.042;2022-09-02T19:19:00;20.70;62.80
45489;DHT22;31236;55.026;61.042;2022-09-02T19:27:45;20.60;63.60
45489;DHT22;31236;55.026;61.042;2022-09-02T19:30:16;20.50;63.90
45489;DHT22;31236;55.026;61.042;2022-09-02T19:32:48;20.40;64.30
45489;DHT22;31236;55.026;61.042;2022-09-02T19:35:19;20.40;64.70
45489;DHT22;31236;55.026;61.042;2022-09-02T19:37:49;20.40;64.80
45489;DHT22;31236;55.026;61.042;2022-09-02T19:40:20;20.30;65.00
45489;DHT22;31236;55.026;61.042;2022-09-02T19:42:50;20.20;65.30
45489;DHT22;31236;55.026;61.042;2022-09-02T19:45:19;20.20;65.30
45489;DHT22;31236;55.026;61.042;2022-09-02T19:47:49;20.20;65.50
45489;DHT22;31236;55.026;61.042;2022-09-02T19:50:19;20.10;65.50
45489;DHT22;31236;55.026;61.042;2022-09-02T19:52:49;20.10;65.90
45489;DHT22;31236;55.026;61.042;2022-09-02T19:55:19;20.10;66.20
45489;DHT22;31236;55.026;61.042;2022-09-02T19:57:48;20.00;66.10
45489;DHT22;31236;55.026;61.042;2022-09-02T20:00:18;19.90;66.20
45489;DHT22;31236;55.026;61.042;2022-09-02T20:02:48;19.90;66.20
45489;DHT22;31236;55.026;61.042;2022-09-02T20:05:17;19.90;66.50
45489;DHT22;31236;55.026;61.042;2022-09-02T20:07:48;19.90;66.50
45489;DHT22;31236;55.026;61.042;2022-09-02T20:10:18;19.80;66.60
45489;DHT22;31236;55.026;61.042;2022-09-02T20:12:47;19.80;66.80
45489;DHT22;31236;55.026;61.042;2022-09-02T20:15:16;19.70;66.70
45489;DHT22;31236;55.026;61.042;2022-09-02T20:17:46;19.70;66.80
45489;DHT22;31236;55.026;61.042;2022-09-02T20:20:17;19.70;67.10
45489;DHT22;31236;55.026;61.042;2022-09-02T20:22:48;19.70;67.00
45489;DHT22;31236;55.026;61.042;2022-09-02T20:25:19;19.70;66.90
45489;DHT22;31236;55.026;61.042;2022-09-02T20:28:23;19.70;67.00
45489;DHT22;31236;55.026;61.042;2022-09-02T20:30:21;19.60;67.00
45489;DHT22;31236;55.026;61.042;2022-09-02T20:55:46;19.20;68.40
45489;DHT22;31236;55.026;61.042;2022-09-02T21:23:41;19.30;69.30
45489;DHT22;31236;55.026;61.042;2022-09-02T21:26:12;19.20;69.70
45489;DHT22;31236;55.026;61.042;2022-09-02T21:37:08;19.20;70.60
45489;DHT22;31236;55.026;61.042;2022-09-02T21:39:38;19.10;73.30
45489;DHT22;31236;55.026;61.042;2022-09-02T22:13:09;19.10;76.10
45489;DHT22;31236;55.026;61.042;2022-09-02T22:21:00;19.10;76.00
45489;DHT22;31236;55.026;61.042;2022-09-02T22:23:29;19.10;76.00
45489;DHT22;31236;55.026;61.042;2022-09-02T22:28:49;19.00;77.00